createdAt,value
2019-03-21T00:00:45.168Z,102992.22
2019-03-21T00:01:56.040Z,102988.72
2019-03-21T00:03:03.834Z,102980.98
2019-03-21T00:04:14.597Z,102987.75
2019-03-21T00:05:22.602Z,102980.41
2019-03-21T00:06:30.985Z,102980.84
2019-03-21T00:07:39.152Z,102978.70
2019-03-21T00:08:47.316Z,102973.95
2019-03-21T00:10:44.182Z,102975.66
2019-03-21T00:12:06.769Z,102973.14
2019-03-21T00:13:14.321Z,102979.05
2019-03-21T00:14:58.180Z,102981.59
2019-03-21T00:16:06.358Z,102978.59
2019-03-21T00:17:14.882Z,102975.15
2019-03-21T00:18:22.383Z,102976.00
2019-03-21T00:19:29.868Z,102980.27
2019-03-21T00:20:37.487Z,102978.09
2019-03-21T00:21:44.926Z,102975.08
2019-03-21T00:22:52.446Z,102974.69
2019-03-21T00:24:00.360Z,102978.98
2019-03-21T00:25:09.183Z,102975.55
2019-03-21T00:26:16.910Z,102973.34
2019-03-21T00:27:24.490Z,102977.19
2019-03-21T00:28:31.925Z,102981.39
2019-03-21T00:29:39.990Z,102980.93
2019-03-21T00:30:47.863Z,102985.22
2019-03-21T00:31:55.881Z,102986.93
2019-03-21T00:33:03.988Z,102983.94
2019-03-21T00:34:11.661Z,102981.81
2019-03-21T00:35:20.061Z,102980.93
2019-03-21T00:36:27.961Z,102981.38
2019-03-21T00:37:35.719Z,102973.31
2019-03-21T00:38:43.570Z,102975.00
2019-03-21T00:39:51.383Z,102976.20
2019-03-21T00:40:59.442Z,102975.72
2019-03-21T00:42:06.889Z,102975.27
2019-03-21T00:43:15.384Z,102966.77
2019-03-21T00:44:23.851Z,102972.28
2019-03-21T00:45:31.457Z,102972.25
2019-03-21T00:46:39.278Z,102970.55
2019-03-21T00:47:47.215Z,102968.38
2019-03-21T00:48:54.712Z,102973.47
2019-03-21T00:50:02.226Z,102967.41
2019-03-21T00:51:09.705Z,102961.31
2019-03-21T00:52:18.005Z,102963.84
2019-03-21T00:53:25.499Z,102963.73
2019-03-21T00:54:33.387Z,102966.62
2019-03-21T00:55:42.201Z,102962.75
2019-03-21T00:56:49.773Z,102961.44
2019-03-21T00:57:58.607Z,102956.69
2019-03-21T00:59:06.366Z,102962.27
2019-03-21T01:00:20.158Z,102957.08
2019-03-21T01:01:27.663Z,102954.06
2019-03-21T01:02:35.103Z,102953.58
2019-03-21T01:03:43.379Z,102954.78
2019-03-21T01:04:51.094Z,102954.78
2019-03-21T01:05:58.950Z,102957.30
2019-03-21T01:07:07.207Z,102953.47
2019-03-21T01:08:14.968Z,102945.41
2019-03-21T01:09:22.788Z,102948.33
2019-03-21T01:10:30.386Z,102949.96
2019-03-21T01:11:37.859Z,102947.02
2019-03-21T01:12:45.412Z,102948.26
2019-03-21T01:13:53.450Z,102948.69
2019-03-21T01:15:00.949Z,102949.53
2019-03-21T01:16:08.763Z,102946.13
2019-03-21T01:17:16.946Z,102952.13
2019-03-21T01:18:24.774Z,102954.72
2019-03-21T01:19:33.464Z,102956.38
2019-03-21T01:20:41.456Z,102946.55
2019-03-21T01:21:49.352Z,102949.96
2019-03-21T01:22:57.210Z,102952.09
2019-03-21T01:24:05.295Z,102955.00
2019-03-21T01:25:17.531Z,102951.59
2019-03-21T01:26:25.023Z,102955.47
2019-03-21T01:27:33.238Z,102951.20
2019-03-21T01:28:41.040Z,102944.85
2019-03-21T01:29:48.833Z,102945.67
2019-03-21T01:30:56.628Z,102947.87
2019-03-21T01:32:04.090Z,102944.85
2019-03-21T01:33:11.914Z,102948.65
2019-03-21T01:34:19.365Z,102952.73
2019-03-21T01:35:26.971Z,102955.25
2019-03-21T01:36:34.849Z,102955.07
2019-03-21T01:37:42.417Z,102954.57
2019-03-21T01:38:49.881Z,102951.56
2019-03-21T01:39:57.743Z,102953.19
2019-03-21T01:41:05.404Z,102954.46
2019-03-21T01:42:12.890Z,102943.71
2019-03-21T01:43:20.941Z,102951.38
2019-03-21T01:44:28.579Z,102945.88
2019-03-21T01:45:36.073Z,102958.18
2019-03-21T01:46:44.101Z,102949.63
2019-03-21T01:47:52.522Z,102955.59
2019-03-21T01:49:00.562Z,102955.98
2019-03-21T01:50:09.264Z,102957.33
2019-03-21T01:51:16.814Z,102958.64
2019-03-21T01:52:24.720Z,102956.94
2019-03-21T01:53:32.668Z,102951.41
2019-03-21T01:54:40.421Z,102951.41
2019-03-21T01:55:48.722Z,102952.65
2019-03-21T01:56:56.563Z,102951.34
2019-03-21T01:58:04.222Z,102946.19
2019-03-21T01:59:12.180Z,102946.62
2019-03-21T02:00:27.525Z,102948.78
2019-03-21T02:01:35.559Z,102945.41
2019-03-21T02:02:43.496Z,102941.52
2019-03-21T02:03:52.685Z,102941.05
2019-03-21T02:05:00.358Z,102936.76
2019-03-21T02:06:08.241Z,102938.92
2019-03-21T02:07:15.895Z,102939.09
2019-03-21T02:08:23.345Z,102936.53
2019-03-21T02:09:30.842Z,102934.33
2019-03-21T02:10:38.673Z,102933.98
2019-03-21T02:11:46.545Z,102940.83
2019-03-21T02:12:54.361Z,102939.01
2019-03-21T02:14:02.010Z,102934.72
2019-03-21T02:15:11.201Z,102942.80
2019-03-21T02:16:18.657Z,102941.17
2019-03-21T02:17:26.145Z,102935.22
2019-03-21T02:18:33.600Z,102940.36
2019-03-21T02:19:41.135Z,102934.48
2019-03-21T02:20:48.974Z,102931.89
2019-03-21T02:21:56.890Z,102934.02
2019-03-21T02:23:04.825Z,102935.30
2019-03-21T02:24:12.715Z,102934.02
2019-03-21T02:25:28.922Z,102937.07
2019-03-21T02:26:36.401Z,102931.97
2019-03-21T02:27:44.322Z,102933.24
2019-03-21T02:28:51.789Z,102935.34
2019-03-21T02:29:59.757Z,102935.22
2019-03-21T02:31:07.229Z,102928.27
2019-03-21T02:32:15.040Z,102927.38
2019-03-21T02:33:30.058Z,102930.77
2019-03-21T02:34:37.689Z,102926.95
2019-03-21T02:35:45.451Z,102926.09
2019-03-21T02:36:53.588Z,102933.36
2019-03-21T02:38:01.109Z,102930.23
2019-03-21T02:39:09.674Z,102937.47
2019-03-21T02:40:19.742Z,102934.95
2019-03-21T02:41:27.193Z,102931.51
2019-03-21T02:42:34.668Z,102930.20
2019-03-21T02:43:42.467Z,102928.49
2019-03-21T02:44:49.980Z,102935.77
2019-03-21T02:45:57.588Z,102930.62
2019-03-21T02:47:05.019Z,102929.27
2019-03-21T02:48:12.904Z,102926.21
2019-03-21T02:49:20.382Z,102926.67
2019-03-21T02:50:33.815Z,102926.72
2019-03-21T02:51:41.464Z,102925.02
2019-03-21T02:52:48.935Z,102928.03
2019-03-21T02:53:56.796Z,102927.09
2019-03-21T02:55:04.321Z,102927.87
2019-03-21T02:56:14.681Z,102926.91
2019-03-21T02:57:22.198Z,102927.67
2019-03-21T02:58:29.674Z,102931.46
2019-03-21T02:59:37.154Z,102928.86
2019-03-21T03:00:44.704Z,102928.52
2019-03-21T03:01:52.258Z,102931.97
2019-03-21T03:03:01.561Z,102936.18
2019-03-21T03:04:09.056Z,102931.92
2019-03-21T03:05:25.493Z,102931.97
2019-03-21T03:06:32.962Z,102933.28
2019-03-21T03:07:40.474Z,102930.81
2019-03-21T03:08:48.900Z,102929.27
2019-03-21T03:09:56.393Z,102933.56
2019-03-21T03:11:05.176Z,102938.28
2019-03-21T03:12:12.595Z,102938.28
2019-03-21T03:13:20.424Z,102935.80
2019-03-21T03:14:28.629Z,102933.67
2019-03-21T03:15:36.189Z,102937.08
2019-03-21T03:16:44.073Z,102935.30
2019-03-21T03:17:52.262Z,102929.70
2019-03-21T03:18:59.736Z,102930.97
2019-03-21T03:20:08.685Z,102928.41
2019-03-21T03:21:16.197Z,102928.77
2019-03-21T03:22:23.682Z,102927.91
2019-03-21T03:23:31.112Z,102932.05
2019-03-21T03:24:40.250Z,102928.61
2019-03-21T03:25:50.607Z,102927.25
2019-03-21T03:26:56.961Z,102933.03
2019-03-21T03:28:09.954Z,102922.38
2019-03-21T03:29:17.420Z,102924.92
2019-03-21T03:30:25.814Z,102926.58
2019-03-21T03:31:33.351Z,102923.22
2019-03-21T03:32:41.222Z,102929.22
2019-03-21T03:33:48.724Z,102925.04
2019-03-21T03:34:57.945Z,102926.44
2019-03-21T03:36:05.750Z,102925.28
2019-03-21T03:37:13.274Z,102926.09
2019-03-21T03:38:20.792Z,102921.45
2019-03-21T03:39:28.566Z,102923.66
2019-03-21T03:40:40.541Z,102924.09
2019-03-21T03:41:48.121Z,102920.22
2019-03-21T03:42:55.953Z,102923.50
2019-03-21T03:44:03.461Z,102920.95
2019-03-21T03:45:16.303Z,102930.00
2019-03-21T03:46:23.745Z,102923.66
2019-03-21T03:47:31.259Z,102928.37
2019-03-21T03:48:39.156Z,102931.36
2019-03-21T03:49:46.674Z,102923.70
2019-03-21T03:50:54.499Z,102931.36
2019-03-21T03:52:03.351Z,102922.77
2019-03-21T03:53:10.830Z,102929.11
2019-03-21T03:54:18.290Z,102926.17
2019-03-21T03:55:26.100Z,102929.16
2019-03-21T03:56:34.190Z,102924.97
2019-03-21T03:57:41.654Z,102929.23
2019-03-21T03:58:50.851Z,102930.12
2019-03-21T03:59:58.604Z,102929.77
2019-03-21T04:01:06.519Z,102931.55
2019-03-21T04:02:14.531Z,102929.08
2019-03-21T04:03:21.998Z,102927.03
2019-03-21T04:04:29.644Z,102929.69
2019-03-21T04:05:37.947Z,102924.63
2019-03-21T04:06:45.419Z,102929.41
2019-03-21T04:07:53.498Z,102924.91
2019-03-21T04:09:00.995Z,102929.63
2019-03-21T04:10:12.826Z,102934.00
2019-03-21T04:11:20.533Z,102933.11
2019-03-21T04:12:28.346Z,102936.44
2019-03-21T04:13:36.545Z,102931.65
2019-03-21T04:14:44.084Z,102939.38
2019-03-21T04:15:53.771Z,102938.14
2019-03-21T04:17:01.709Z,102934.88
2019-03-21T04:18:09.643Z,102934.61
2019-03-21T04:19:17.127Z,102936.84
2019-03-21T04:20:28.023Z,102928.83
2019-03-21T04:21:35.552Z,102931.55
2019-03-21T04:22:43.691Z,102933.15
2019-03-21T04:23:51.140Z,102937.83
2019-03-21T04:24:59.095Z,102933.15
2019-03-21T04:26:18.159Z,102942.02
2019-03-21T04:27:25.605Z,102942.41
2019-03-21T04:28:33.888Z,102933.97
2019-03-21T04:29:41.388Z,102937.38
2019-03-21T04:30:49.855Z,102935.17
2019-03-21T04:31:57.739Z,102931.91
2019-03-21T04:33:05.599Z,102933.33
2019-03-21T04:34:13.241Z,102934.59
2019-03-21T04:35:20.747Z,102933.25
2019-03-21T04:36:28.871Z,102932.89
2019-03-21T04:37:36.861Z,102933.81
2019-03-21T04:38:44.569Z,102936.44
2019-03-21T04:39:52.130Z,102933.00
2019-03-21T04:40:59.607Z,102937.75
2019-03-21T04:42:07.065Z,102939.52
2019-03-21T04:43:14.552Z,102935.36
2019-03-21T04:44:22.751Z,102937.55
2019-03-21T04:45:30.294Z,102937.16
2019-03-21T04:46:37.830Z,102942.14
2019-03-21T04:47:45.651Z,102932.70
2019-03-21T04:48:53.307Z,102939.55
2019-03-21T04:50:01.206Z,102942.92
2019-03-21T04:51:09.484Z,102937.39
2019-03-21T04:52:16.967Z,102940.54
2019-03-21T04:53:24.737Z,102936.84
2019-03-21T04:54:32.274Z,102938.57
2019-03-21T04:55:40.420Z,102940.28
2019-03-21T04:56:48.273Z,102948.89
2019-03-21T04:57:55.765Z,102945.13
2019-03-21T04:59:03.233Z,102945.22
2019-03-21T05:00:16.386Z,102945.16
2019-03-21T05:01:24.539Z,102938.30
2019-03-21T05:02:32.391Z,102946.83
2019-03-21T05:03:39.838Z,102946.41
2019-03-21T05:04:47.402Z,102941.22
2019-03-21T05:05:54.869Z,102938.77
2019-03-21T05:07:02.668Z,102940.53
2019-03-21T05:08:10.605Z,102938.86
2019-03-21T05:09:21.187Z,102944.03
2019-03-21T05:10:28.976Z,102946.76
2019-03-21T05:11:36.522Z,102942.02
2019-03-21T05:12:44.037Z,102945.78
2019-03-21T05:13:54.830Z,102945.22
2019-03-21T05:15:02.803Z,102948.23
2019-03-21T05:16:14.764Z,102939.39
2019-03-21T05:17:19.793Z,102938.64
2019-03-21T05:18:34.637Z,102940.83
2019-03-21T05:19:42.656Z,102948.00
2019-03-21T05:20:50.863Z,102948.83
2019-03-21T05:21:58.352Z,102951.22
2019-03-21T05:23:06.140Z,102946.20
2019-03-21T05:24:14.004Z,102948.80
2019-03-21T05:25:21.536Z,102953.41
2019-03-21T05:26:29.329Z,102951.25
2019-03-21T05:27:37.143Z,102949.28
2019-03-21T05:28:45.334Z,102955.41
2019-03-21T05:29:52.777Z,102956.20
2019-03-21T05:31:21.518Z,102956.95
2019-03-21T05:32:29.462Z,102949.34
2019-03-21T05:33:37.197Z,102951.58
2019-03-21T05:34:45.134Z,102956.78
2019-03-21T05:35:52.588Z,102953.44
2019-03-21T05:37:00.460Z,102945.01
2019-03-21T05:38:07.975Z,102950.64
2019-03-21T05:39:15.503Z,102954.84
2019-03-21T05:40:23.247Z,102955.50
2019-03-21T05:41:31.189Z,102959.21
2019-03-21T05:42:38.683Z,102960.49
2019-03-21T05:44:01.503Z,102956.20
2019-03-21T05:45:11.129Z,102951.48
2019-03-21T05:46:26.566Z,102950.56
2019-03-21T05:47:28.581Z,102950.17
2019-03-21T05:48:36.125Z,102949.25
2019-03-21T05:49:43.726Z,102948.80
2019-03-21T05:50:51.230Z,102952.73
2019-03-21T05:51:59.040Z,102943.42
2019-03-21T05:53:07.032Z,102945.64
2019-03-21T05:54:14.817Z,102952.03
2019-03-21T05:55:22.708Z,102955.80
2019-03-21T05:56:30.190Z,102954.56
2019-03-21T05:57:38.060Z,102951.25
2019-03-21T05:58:45.554Z,102951.73
2019-03-21T05:59:53.682Z,102962.23
2019-03-21T06:01:01.304Z,102963.08
2019-03-21T06:02:09.192Z,102961.70
2019-03-21T06:03:21.395Z,102958.76
2019-03-21T06:04:29.513Z,102959.77
2019-03-21T06:05:37.525Z,102955.56
2019-03-21T06:07:12.154Z,102959.04
2019-03-21T06:08:30.957Z,102960.71
2019-03-21T06:09:38.897Z,102962.84
2019-03-21T06:10:47.043Z,102956.84
2019-03-21T06:11:58.455Z,102957.83
2019-03-21T06:13:06.440Z,102966.77
2019-03-21T06:14:14.638Z,102963.66
2019-03-21T06:15:29.025Z,102963.33
2019-03-21T06:16:37.872Z,102970.25
2019-03-21T06:17:47.843Z,102968.41
2019-03-21T06:19:21.562Z,102971.03
2019-03-21T06:21:05.917Z,102971.16
2019-03-21T06:23:40.187Z,102969.48
2019-03-21T06:25:48.353Z,102966.08
2019-03-21T06:27:14.703Z,102969.18
2019-03-21T06:28:20.782Z,102968.23
2019-03-21T06:29:28.347Z,102978.47
2019-03-21T06:30:36.132Z,102984.44
2019-03-21T06:31:44.173Z,102977.28
2019-03-21T06:32:51.617Z,102979.90
2019-03-21T06:33:59.159Z,102978.19
2019-03-21T06:35:09.216Z,102981.59
2019-03-21T06:36:16.703Z,102979.92
2019-03-21T06:37:24.550Z,102975.69
2019-03-21T06:38:32.132Z,102980.09
2019-03-21T06:39:39.959Z,102983.55
2019-03-21T06:40:47.468Z,102989.94
2019-03-21T06:41:54.947Z,102989.97
2019-03-21T06:43:02.569Z,102994.75
2019-03-21T06:44:10.401Z,102990.99
2019-03-21T06:45:17.890Z,102992.33
2019-03-21T06:46:25.828Z,102989.69
2019-03-21T06:47:33.620Z,102993.52
2019-03-21T06:48:41.074Z,102995.31
2019-03-21T06:49:48.858Z,103003.02
2019-03-21T06:50:56.962Z,102997.91
2019-03-21T06:52:05.321Z,103003.05
2019-03-21T06:53:13.143Z,103003.16
2019-03-21T06:54:21.176Z,102998.16
2019-03-21T06:55:28.681Z,102998.49
2019-03-21T06:56:36.161Z,103001.57
2019-03-21T06:57:43.671Z,103009.25
2019-03-21T06:58:52.626Z,103005.83
2019-03-21T07:00:00.553Z,103007.94
2019-03-21T07:01:08.011Z,103006.66
2019-03-21T07:02:15.473Z,103007.14
2019-03-21T07:03:23.733Z,103005.78
2019-03-21T07:04:31.212Z,103007.54
2019-03-21T07:05:38.675Z,103002.39
2019-03-21T07:06:46.173Z,103004.15
2019-03-21T07:07:53.689Z,103008.42
2019-03-21T07:09:01.182Z,103003.75
2019-03-21T07:10:10.616Z,102999.97
2019-03-21T07:11:19.033Z,103003.36
2019-03-21T07:12:26.511Z,102997.36
2019-03-21T07:13:34.296Z,103003.36
2019-03-21T07:14:41.762Z,102995.75
2019-03-21T07:15:49.787Z,103000.05
2019-03-21T07:17:00.724Z,102995.80
2019-03-21T07:18:06.583Z,102999.16
2019-03-21T07:19:14.151Z,102995.48
2019-03-21T07:20:21.643Z,102995.50
2019-03-21T07:21:30.095Z,102995.89
2019-03-21T07:22:38.576Z,102999.24
2019-03-21T07:23:46.238Z,102996.69
2019-03-21T07:24:53.741Z,102998.91
2019-03-21T07:26:01.650Z,102996.42
2019-03-21T07:27:09.175Z,102997.75
2019-03-21T07:28:16.969Z,103001.22
2019-03-21T07:29:24.520Z,103000.84
2019-03-21T07:30:32.005Z,102998.38
2019-03-21T07:31:40.208Z,102993.27
2019-03-21T07:32:47.681Z,102997.06
2019-03-21T07:33:55.261Z,103000.50
2019-03-21T07:35:03.161Z,102998.40
2019-03-21T07:36:11.062Z,103000.16
2019-03-21T07:37:18.548Z,103000.13
2019-03-21T07:38:26.068Z,103007.80
2019-03-21T07:39:33.545Z,103001.31
2019-03-21T07:40:41.052Z,103003.47
2019-03-21T07:41:48.726Z,102998.42
2019-03-21T07:42:56.597Z,103008.62
2019-03-21T07:44:04.226Z,103001.86
2019-03-21T07:45:12.056Z,103006.23
2019-03-21T07:46:19.960Z,103001.98
2019-03-21T07:47:28.189Z,102997.34
2019-03-21T07:48:36.013Z,103002.45
2019-03-21T07:49:43.526Z,103003.33
2019-03-21T07:50:51.027Z,103002.59
2019-03-21T07:51:58.897Z,103002.25
2019-03-21T07:53:06.725Z,103002.33
2019-03-21T07:54:14.215Z,103002.42
2019-03-21T07:55:21.773Z,103003.72
2019-03-21T07:56:29.499Z,103005.50
2019-03-21T07:57:36.998Z,103001.64
2019-03-21T07:58:44.859Z,103000.42
2019-03-21T07:59:52.698Z,103003.08
2019-03-21T08:01:00.180Z,103008.33
2019-03-21T08:02:07.716Z,103006.77
2019-03-21T08:03:15.529Z,103011.06
2019-03-21T08:04:23.091Z,103012.77
2019-03-21T08:05:39.895Z,103009.77
2019-03-21T08:06:39.890Z,103004.75
2019-03-21T08:07:47.366Z,103011.94
2019-03-21T08:08:54.819Z,103007.63
2019-03-21T08:10:02.426Z,103007.71
2019-03-21T08:11:09.877Z,103002.60
2019-03-21T08:12:17.379Z,103001.30
2019-03-21T08:13:24.854Z,103004.28
2019-03-21T08:14:32.653Z,103001.30
2019-03-21T08:15:40.549Z,102997.52
2019-03-21T08:16:48.052Z,103003.97
2019-03-21T08:17:56.380Z,103005.72
2019-03-21T08:19:03.871Z,103013.01
2019-03-21T08:20:12.565Z,103009.63
2019-03-21T08:21:20.515Z,103013.47
2019-03-21T08:22:28.085Z,103013.13
2019-03-21T08:23:35.560Z,103022.98
2019-03-21T08:24:44.509Z,103015.32
2019-03-21T08:25:52.367Z,103019.19
2019-03-21T08:27:00.684Z,103014.91
2019-03-21T08:28:08.171Z,103014.54
2019-03-21T08:29:16.105Z,103014.57
2019-03-21T08:30:40.488Z,103017.14
2019-03-21T08:31:48.786Z,103014.17
2019-03-21T08:32:56.974Z,103017.16
2019-03-21T08:34:04.631Z,103016.25
2019-03-21T08:35:12.358Z,103025.31
2019-03-21T08:36:19.883Z,103016.37
2019-03-21T08:37:27.748Z,103020.73
2019-03-21T08:38:35.664Z,103021.58
2019-03-21T08:39:43.550Z,103027.16
2019-03-21T08:40:51.397Z,103024.64
2019-03-21T08:41:59.606Z,103028.08
2019-03-21T08:43:07.531Z,103033.67
2019-03-21T08:44:15.056Z,103036.20
2019-03-21T08:45:22.515Z,103034.06
2019-03-21T08:46:30.411Z,103040.50
2019-03-21T08:47:38.260Z,103045.23
2019-03-21T08:48:45.763Z,103049.50
2019-03-21T08:49:53.284Z,103042.70
2019-03-21T08:51:08.350Z,103041.83
2019-03-21T08:52:10.290Z,103042.31
2019-03-21T08:53:17.946Z,103038.38
2019-03-21T08:54:25.413Z,103044.39
2019-03-21T08:55:33.010Z,103039.29
2019-03-21T08:56:40.814Z,103035.93
2019-03-21T08:57:48.611Z,103044.50
2019-03-21T08:58:56.312Z,103041.97
2019-03-21T09:00:05.223Z,103038.14
2019-03-21T09:01:13.159Z,103040.34
2019-03-21T09:02:20.729Z,103041.66
2019-03-21T09:03:28.767Z,103036.16
2019-03-21T09:04:36.348Z,103041.69
2019-03-21T09:05:43.976Z,103039.98
2019-03-21T09:06:52.754Z,103035.72
2019-03-21T09:08:00.513Z,103034.88
2019-03-21T09:09:11.016Z,103038.28
2019-03-21T09:10:18.502Z,103036.52
2019-03-21T09:11:26.097Z,103036.92
2019-03-21T09:12:33.910Z,103036.85
2019-03-21T09:13:41.418Z,103037.73
2019-03-21T09:14:48.873Z,103036.90
2019-03-21T09:15:56.583Z,103036.47
2019-03-21T09:17:04.614Z,103032.66
2019-03-21T09:18:12.081Z,103028.41
2019-03-21T09:19:19.911Z,103022.03
2019-03-21T09:20:27.389Z,103026.81
2019-03-21T09:21:35.642Z,103027.27
2019-03-21T09:22:43.242Z,103029.44
2019-03-21T09:23:52.139Z,103029.89
2019-03-21T09:25:00.037Z,103034.61
2019-03-21T09:26:08.044Z,103040.61
2019-03-21T09:27:15.555Z,103035.02
2019-03-21T09:28:23.137Z,103036.26
2019-03-21T09:29:30.624Z,103030.30
2019-03-21T09:30:38.153Z,103030.67
2019-03-21T09:31:45.676Z,103025.55
2019-03-21T09:32:53.195Z,103025.95
2019-03-21T09:34:01.078Z,103026.81
2019-03-21T09:35:12.282Z,103029.38
2019-03-21T09:36:18.811Z,103027.71
2019-03-21T09:37:26.377Z,103032.00
2019-03-21T09:38:33.876Z,103030.77
2019-03-21T09:39:41.373Z,103035.91
2019-03-21T09:40:49.221Z,103031.20
2019-03-21T09:41:57.076Z,103030.36
2019-03-21T09:43:04.970Z,103034.67
2019-03-21T09:44:12.765Z,103034.22
2019-03-21T09:45:20.528Z,103032.09
2019-03-21T09:46:28.039Z,103035.09
2019-03-21T09:47:35.949Z,103029.50
2019-03-21T09:48:43.455Z,103025.20
2019-03-21T09:49:50.941Z,103029.49
2019-03-21T09:50:58.620Z,103027.36
2019-03-21T09:52:06.187Z,103031.62
2019-03-21T09:53:14.005Z,103023.02
2019-03-21T09:54:21.799Z,103022.59
2019-03-21T09:55:29.531Z,103023.04
2019-03-21T09:56:37.484Z,103028.58
2019-03-21T09:57:44.983Z,103030.72
2019-03-21T09:58:52.439Z,103024.68
2019-03-21T09:59:59.936Z,103029.44
2019-03-21T10:01:07.454Z,103034.64
2019-03-21T10:02:15.130Z,103029.90
2019-03-21T10:03:22.627Z,103028.20
2019-03-21T10:04:30.223Z,103029.92
2019-03-21T10:05:38.268Z,103029.48
2019-03-21T10:06:45.752Z,103030.37
2019-03-21T10:07:53.234Z,103025.21
2019-03-21T10:09:01.983Z,103030.77
2019-03-21T10:10:12.409Z,103028.62
2019-03-21T10:11:19.895Z,103038.06
2019-03-21T10:12:27.791Z,103034.20
2019-03-21T10:13:35.268Z,103039.38
2019-03-21T10:14:42.846Z,103038.96
2019-03-21T10:15:50.335Z,103033.79
2019-03-21T10:16:57.845Z,103034.63
2019-03-21T10:18:06.125Z,103034.59
2019-03-21T10:19:13.682Z,103035.38
2019-03-21T10:20:21.174Z,103034.05
2019-03-21T10:21:29.048Z,103035.28
2019-03-21T10:22:36.577Z,103039.96
2019-03-21T10:23:44.038Z,103034.75
2019-03-21T10:24:51.877Z,103039.11
2019-03-21T10:26:00.092Z,103041.25
2019-03-21T10:27:07.920Z,103035.19
2019-03-21T10:28:15.441Z,103036.87
2019-03-21T10:29:22.988Z,103040.31
2019-03-21T10:30:39.397Z,103036.37
2019-03-21T10:31:46.980Z,103041.98
2019-03-21T10:32:54.506Z,103042.48
2019-03-21T10:34:02.411Z,103043.73
2019-03-21T10:35:09.919Z,103048.41
2019-03-21T10:36:17.922Z,103044.94
2019-03-21T10:37:25.527Z,103048.44
2019-03-21T10:38:33.065Z,103043.73
2019-03-21T10:39:40.580Z,103042.88
2019-03-21T10:40:48.117Z,103046.67
2019-03-21T10:41:56.016Z,103041.59
2019-03-21T10:43:03.494Z,103045.08
2019-03-21T10:44:11.037Z,103043.78
2019-03-21T10:45:18.573Z,103041.69
2019-03-21T10:46:26.101Z,103042.54
2019-03-21T10:47:33.716Z,103046.05
2019-03-21T10:48:41.270Z,103042.33
2019-03-21T10:49:49.119Z,103041.06
2019-03-21T10:50:56.691Z,103041.06
2019-03-21T10:52:04.241Z,103038.09
2019-03-21T10:53:12.376Z,103041.51
2019-03-21T10:54:19.834Z,103037.22
2019-03-21T10:55:27.725Z,103036.77
2019-03-21T10:56:35.224Z,103038.08
2019-03-21T10:57:43.194Z,103038.92
2019-03-21T10:58:50.665Z,103035.88
2019-03-21T10:59:58.127Z,103036.29
2019-03-21T11:01:05.667Z,103039.31
2019-03-21T11:02:13.137Z,103043.55
2019-03-21T11:03:20.667Z,103043.52
2019-03-21T11:04:28.419Z,103046.98
2019-03-21T11:05:36.257Z,103042.27
2019-03-21T11:06:43.790Z,103045.28
2019-03-21T11:07:51.719Z,103040.59
2019-03-21T11:08:59.931Z,103044.94
2019-03-21T11:10:08.087Z,103046.66
2019-03-21T11:11:16.291Z,103044.51
2019-03-21T11:12:24.229Z,103046.22
2019-03-21T11:13:31.891Z,103044.08
2019-03-21T11:14:39.331Z,103044.53
2019-03-21T11:15:47.567Z,103041.50
2019-03-21T11:16:55.026Z,103042.81
2019-03-21T11:18:02.968Z,103041.91
2019-03-21T11:19:10.522Z,103042.36
2019-03-21T11:20:40.238Z,103041.06
2019-03-21T11:21:48.113Z,103037.65
2019-03-21T11:22:55.946Z,103041.91
2019-03-21T11:24:03.571Z,103039.31
2019-03-21T11:25:11.366Z,103033.71
2019-03-21T11:26:19.170Z,103030.75
2019-03-21T11:27:26.640Z,103035.50
2019-03-21T11:28:34.206Z,103035.44
2019-03-21T11:29:41.654Z,103035.84
2019-03-21T11:30:49.546Z,103034.53
2019-03-21T11:31:57.559Z,103032.39
2019-03-21T11:33:05.656Z,103029.02
2019-03-21T11:34:13.134Z,103032.89
2019-03-21T11:35:20.770Z,103031.59
2019-03-21T11:36:37.821Z,103026.85
2019-03-21T11:37:37.459Z,103035.03
2019-03-21T11:38:44.954Z,103032.47
2019-03-21T11:39:52.859Z,103026.91
2019-03-21T11:41:00.327Z,103029.02
2019-03-21T11:42:07.807Z,103024.24
2019-03-21T11:43:17.577Z,103027.27
2019-03-21T11:44:25.158Z,103026.88
2019-03-21T11:45:32.687Z,103022.61
2019-03-21T11:46:40.559Z,103026.41
2019-03-21T11:47:48.403Z,103025.97
2019-03-21T11:48:56.066Z,103024.65
2019-03-21T11:50:03.568Z,103026.34
2019-03-21T11:51:11.056Z,103019.89
2019-03-21T11:52:18.846Z,103017.72
2019-03-21T11:53:27.607Z,103021.62
2019-03-21T11:54:35.123Z,103026.37
2019-03-21T11:55:42.691Z,103026.41
2019-03-21T11:56:50.541Z,103019.56
2019-03-21T11:57:58.343Z,103016.47
2019-03-21T11:59:06.205Z,103017.67
2019-03-21T12:00:14.830Z,103021.58
2019-03-21T12:01:22.454Z,103026.65
2019-03-21T12:02:29.939Z,103023.97
2019-03-21T12:03:37.461Z,103028.23
2019-03-21T12:04:44.935Z,103026.05
2019-03-21T12:05:53.244Z,103029.51
2019-03-21T12:07:00.947Z,103027.79
2019-03-21T12:08:08.398Z,103027.44
2019-03-21T12:09:16.376Z,103028.22
2019-03-21T12:10:23.860Z,103026.98
2019-03-21T12:11:31.395Z,103022.23
2019-03-21T12:12:39.291Z,103018.73
2019-03-21T12:13:47.195Z,103016.14
2019-03-21T12:14:54.811Z,103008.40
2019-03-21T12:16:03.060Z,103018.75
2019-03-21T12:17:12.769Z,103013.09
2019-03-21T12:18:19.760Z,103018.58
2019-03-21T12:19:27.363Z,103011.74
2019-03-21T12:20:36.851Z,103022.42
2019-03-21T12:21:44.770Z,103011.55
2019-03-21T12:22:52.650Z,103011.74
2019-03-21T12:24:00.735Z,103011.34
2019-03-21T12:25:09.353Z,103009.53
2019-03-21T12:26:16.953Z,103004.42
2019-03-21T12:27:24.727Z,103004.09
2019-03-21T12:28:32.548Z,102998.98
2019-03-21T12:29:40.468Z,102997.63
2019-03-21T12:30:48.351Z,103001.17
2019-03-21T12:31:55.862Z,102995.48
2019-03-21T12:33:03.352Z,102992.43
2019-03-21T12:34:11.545Z,102994.41
2019-03-21T12:35:19.073Z,102998.20
2019-03-21T12:36:26.553Z,102994.02
2019-03-21T12:37:34.387Z,102989.67
2019-03-21T12:38:41.928Z,102995.31
2019-03-21T12:39:49.523Z,102988.77
2019-03-21T12:40:57.805Z,102991.72
2019-03-21T12:42:05.806Z,102987.23
2019-03-21T12:43:13.342Z,102993.59
2019-03-21T12:44:20.848Z,102995.70
2019-03-21T12:45:28.788Z,102993.83
2019-03-21T12:46:36.387Z,102989.84
2019-03-21T12:47:43.867Z,102987.60
2019-03-21T12:48:51.737Z,102994.91
2019-03-21T12:50:00.034Z,102993.73
2019-03-21T12:51:07.527Z,102994.09
2019-03-21T12:52:15.261Z,102993.72
2019-03-21T12:53:22.742Z,102998.92
2019-03-21T12:54:30.222Z,102998.53
2019-03-21T12:55:38.166Z,102996.34
2019-03-21T12:56:45.721Z,102995.39
2019-03-21T12:57:53.621Z,102987.97
2019-03-21T12:59:01.460Z,102986.27
2019-03-21T13:00:09.833Z,102991.37
2019-03-21T13:01:17.579Z,102995.98
2019-03-21T13:03:35.165Z,102997.33
2019-03-21T13:04:42.719Z,102995.12